sensor_id;sensor_type;location;lat;lon;timestamp;pressure;altitude;pressure_sealevel;temperature;humidity
41596;BME280;27283;52.504;13.358;2024-03-08T00:01:07;102029.28;;;5.34;53.19
41596;BME280;27283;52.504;13.358;2024-03-08T00:03:44;102025.34;;;5.54;52.59
41596;BME280;27283;52.504;13.358;2024-03-08T00:06:19;102029.75;;;5.41;53.80
41596;BME280;27283;52.504;13.358;2024-03-08T00:08:51;102026.47;;;5.50;53.34
41596;BME280;27283;52.504;13.358;2024-03-08T00:11:25;102023.50;;;5.27;54.23
41596;BME280;27283;52.504;13.358;2024-03-08T00:13:58;102021.22;;;4.94;54.16
41596;BME280;27283;52.504;13.358;2024-03-08T00:16:30;102019.69;;;4.90;55.99
41596;BME280;27283;52.504;13.358;2024-03-08T00:19:02;102016.78;;;4.37;56.44
41596;BME280;27283;52.504;13.358;2024-03-08T00:21:36;102012.59;;;4.76;55.07
41596;BME280;27283;52.504;13.358;2024-03-08T00:24:08;102015.25;;;4.61;55.28
41596;BME280;27283;52.504;13.358;2024-03-08T00:26:41;102011.34;;;4.82;54.56
41596;BME280;27283;52.504;13.358;2024-03-08T00:29:14;102017.97;;;4.89;55.22
41596;BME280;27283;52.504;13.358;2024-03-08T00:31:46;102020.25;;;5.37;53.87
41596;BME280;27283;52.504;13.358;2024-03-08T00:34:18;102024.38;;;5.28;53.99
41596;BME280;27283;52.504;13.358;2024-03-08T00:36:53;102020.75;;;5.29;53.82
41596;BME280;27283;52.504;13.358;2024-03-08T00:39:25;102011.31;;;4.96;55.51
41596;BME280;27283;52.504;13.358;2024-03-08T00:42:01;102022.75;;;4.69;56.39
41596;BME280;27283;52.504;13.358;2024-03-08T00:44:33;102014.75;;;5.25;54.81
41596;BME280;27283;52.504;13.358;2024-03-08T00:47:06;102011.81;;;5.30;54.30
41596;BME280;27283;52.504;13.358;2024-03-08T00:49:40;102007.34;;;5.16;54.88
41596;BME280;27283;52.504;13.358;2024-03-08T00:52:15;102005.75;;;5.13;55.14
41596;BME280;27283;52.504;13.358;2024-03-08T00:54:47;102006.63;;;5.00;55.48
41596;BME280;27283;52.504;13.358;2024-03-08T00:57:19;101994.22;;;4.71;56.79
41596;BME280;27283;52.504;13.358;2024-03-08T01:00:09;101997.94;;;4.11;59.07
41596;BME280;27283;52.504;13.358;2024-03-08T01:03:21;102004.81;;;4.44;57.09
41596;BME280;27283;52.504;13.358;2024-03-08T01:06:47;102000.41;;;4.29;57.14
41596;BME280;27283;52.504;13.358;2024-03-08T01:17:59;101989.56;;;4.60;56.36
41596;BME280;27283;52.504;13.358;2024-03-08T01:20:45;101987.56;;;4.50;57.42
41596;BME280;27283;52.504;13.358;2024-03-08T01:23:35;101977.47;;;4.69;57.02
41596;BME280;27283;52.504;13.358;2024-03-08T01:26:47;101975.13;;;4.21;58.58
41596;BME280;27283;52.504;13.358;2024-03-08T01:29:19;101977.13;;;4.32;58.14
41596;BME280;27283;52.504;13.358;2024-03-08T01:31:51;101965.50;;;4.62;57.10
41596;BME280;27283;52.504;13.358;2024-03-08T01:34:26;101963.00;;;4.73;56.26
41596;BME280;27283;52.504;13.358;2024-03-08T01:36:58;101964.09;;;4.28;58.39
41596;BME280;27283;52.504;13.358;2024-03-08T01:39:30;101963.00;;;4.73;56.45
41596;BME280;27283;52.504;13.358;2024-03-08T01:42:02;101953.25;;;4.31;57.65
41596;BME280;27283;52.504;13.358;2024-03-08T01:44:34;101954.94;;;4.32;58.27
41596;BME280;27283;52.504;13.358;2024-03-08T01:47:14;101943.25;;;3.91;59.89
41596;BME280;27283;52.504;13.358;2024-03-08T01:49:49;101950.19;;;4.22;59.07
41596;BME280;27283;52.504;13.358;2024-03-08T01:52:21;101943.19;;;4.21;58.88
41596;BME280;27283;52.504;13.358;2024-03-08T01:54:54;101938.03;;;4.47;57.69
41596;BME280;27283;52.504;13.358;2024-03-08T01:57:27;101942.66;;;3.86;59.26
41596;BME280;27283;52.504;13.358;2024-03-08T02:00:00;101943.19;;;4.21;58.90
41596;BME280;27283;52.504;13.358;2024-03-08T02:02:41;101931.56;;;3.94;59.51
41596;BME280;27283;52.504;13.358;2024-03-08T02:05:28;101929.44;;;3.84;60.91
41596;BME280;27283;52.504;13.358;2024-03-08T02:08:03;101932.34;;;3.96;59.90
41596;BME280;27283;52.504;13.358;2024-03-08T02:10:35;101932.03;;;4.00;59.91
41596;BME280;27283;52.504;13.358;2024-03-08T02:13:07;101927.84;;;3.96;59.64
41596;BME280;27283;52.504;13.358;2024-03-08T02:15:55;101925.81;;;3.71;60.45
41596;BME280;27283;52.504;13.358;2024-03-08T02:18:28;101924.41;;;3.80;60.62
41596;BME280;27283;52.504;13.358;2024-03-08T02:21:07;101919.25;;;3.62;61.01
41596;BME280;27283;52.504;13.358;2024-03-08T02:23:38;101922.97;;;3.74;59.95
41596;BME280;27283;52.504;13.358;2024-03-08T02:26:11;101930.81;;;4.20;58.62
41596;BME280;27283;52.504;13.358;2024-03-08T02:28:43;101921.47;;;4.42;57.92
41596;BME280;27283;52.504;13.358;2024-03-08T02:31:16;101919.03;;;4.24;57.56
41596;BME280;27283;52.504;13.358;2024-03-08T02:33:47;101914.91;;;4.04;58.29
41596;BME280;27283;52.504;13.358;2024-03-08T02:36:25;101915.78;;;4.34;57.24
41596;BME280;27283;52.504;13.358;2024-03-08T02:38:56;101924.06;;;4.29;57.43
41596;BME280;27283;52.504;13.358;2024-03-08T02:41:29;101917.78;;;4.16;57.44
41596;BME280;27283;52.504;13.358;2024-03-08T02:44:01;101913.56;;;4.40;57.20
41596;BME280;27283;52.504;13.358;2024-03-08T02:46:33;101914.81;;;4.35;57.06
41596;BME280;27283;52.504;13.358;2024-03-08T02:49:04;101912.41;;;4.59;56.03
41596;BME280;27283;52.504;13.358;2024-03-08T02:51:39;101905.19;;;4.61;56.32
41596;BME280;27283;52.504;13.358;2024-03-08T02:54:10;101905.09;;;4.48;56.67
41596;BME280;27283;52.504;13.358;2024-03-08T02:56:42;101908.72;;;4.33;56.26
41596;BME280;27283;52.504;13.358;2024-03-08T02:59:14;101901.50;;;4.06;57.26
41596;BME280;27283;52.504;13.358;2024-03-08T03:01:51;101907.78;;;3.90;57.83
41596;BME280;27283;52.504;13.358;2024-03-08T03:04:24;101904.44;;;3.72;58.10
41596;BME280;27283;52.504;13.358;2024-03-08T03:06:58;101896.00;;;4.23;57.77
41596;BME280;27283;52.504;13.358;2024-03-08T03:09:29;101902.00;;;3.84;58.28
41596;BME280;27283;52.504;13.358;2024-03-08T03:12:02;101883.75;;;4.06;57.70
41596;BME280;27283;52.504;13.358;2024-03-08T03:14:37;101897.03;;;4.35;56.84
41596;BME280;27283;52.504;13.358;2024-03-08T03:17:09;101897.00;;;4.50;56.55
41596;BME280;27283;52.504;13.358;2024-03-08T03:19:41;101886.34;;;4.50;56.39
41596;BME280;27283;52.504;13.358;2024-03-08T03:22:16;101892.50;;;4.23;56.90
41596;BME280;27283;52.504;13.358;2024-03-08T03:24:47;101887.63;;;4.30;57.00
41596;BME280;27283;52.504;13.358;2024-03-08T03:27:20;101885.75;;;4.17;57.59
41596;BME280;27283;52.504;13.358;2024-03-08T03:29:51;101887.19;;;3.94;59.10
41596;BME280;27283;52.504;13.358;2024-03-08T03:32:24;101888.59;;;4.14;58.21
41596;BME280;27283;52.504;13.358;2024-03-08T03:37:55;101885.00;;;4.15;57.96
41596;BME280;27283;52.504;13.358;2024-03-08T03:40:39;101876.53;;;3.94;58.13
41596;BME280;27283;52.504;13.358;2024-03-08T03:43:11;101879.00;;;4.12;58.13
41596;BME280;27283;52.504;13.358;2024-03-08T03:45:43;101890.47;;;4.41;56.96
41596;BME280;27283;52.504;13.358;2024-03-08T03:48:14;101887.91;;;4.11;57.81
41596;BME280;27283;52.504;13.358;2024-03-08T03:50:47;101882.88;;;4.06;57.95
41596;BME280;27283;52.504;13.358;2024-03-08T03:53:21;101885.16;;;4.12;57.77
41596;BME280;27283;52.504;13.358;2024-03-08T03:55:55;101884.31;;;4.26;56.97
41596;BME280;27283;52.504;13.358;2024-03-08T03:58:27;101883.63;;;4.22;57.49
41596;BME280;27283;52.504;13.358;2024-03-08T04:00:59;101891.72;;;4.21;57.53
41596;BME280;27283;52.504;13.358;2024-03-08T04:03:32;101880.50;;;4.01;58.19
41596;BME280;27283;52.504;13.358;2024-03-08T04:06:04;101878.50;;;4.34;57.23
41596;BME280;27283;52.504;13.358;2024-03-08T04:08:39;101886.50;;;4.19;57.95
41596;BME280;27283;52.504;13.358;2024-03-08T04:11:12;101878.50;;;4.34;57.43
41596;BME280;27283;52.504;13.358;2024-03-08T04:13:44;101886.44;;;4.48;56.58
41596;BME280;27283;52.504;13.358;2024-03-08T04:16:17;101880.44;;;4.59;56.23
41596;BME280;27283;52.504;13.358;2024-03-08T04:18:48;101878.59;;;4.32;57.24
41596;BME280;27283;52.504;13.358;2024-03-08T04:21:21;101877.72;;;4.32;57.44
41596;BME280;27283;52.504;13.358;2024-03-08T04:23:55;101877.00;;;3.86;58.38
41596;BME280;27283;52.504;13.358;2024-03-08T04:26:27;101880.47;;;4.30;57.82
41596;BME280;27283;52.504;13.358;2024-03-08T04:28:59;101883.56;;;4.66;56.54
41596;BME280;27283;52.504;13.358;2024-03-08T04:31:32;101883.47;;;4.11;57.75
41596;BME280;27283;52.504;13.358;2024-03-08T04:34:03;101886.88;;;4.13;58.62
41596;BME280;27283;52.504;13.358;2024-03-08T04:36:35;101877.28;;;4.11;58.07
41596;BME280;27283;52.504;13.358;2024-03-08T04:39:20;101880.31;;;4.04;58.63
41596;BME280;27283;52.504;13.358;2024-03-08T04:41:52;101884.13;;;4.15;58.99
41596;BME280;27283;52.504;13.358;2024-03-08T04:44:25;101877.72;;;4.32;57.44
41596;BME280;27283;52.504;13.358;2024-03-08T04:46:57;101877.16;;;4.41;57.65
41596;BME280;27283;52.504;13.358;2024-03-08T04:49:29;101880.13;;;4.22;58.24
41596;BME280;27283;52.504;13.358;2024-03-08T04:52:03;101865.03;;;3.94;59.07
41596;BME280;27283;52.504;13.358;2024-03-08T04:54:38;101872.38;;;3.45;60.56
41596;BME280;27283;52.504;13.358;2024-03-08T04:57:10;101864.78;;;3.39;60.88
41596;BME280;27283;52.504;13.358;2024-03-08T04:59:42;101864.31;;;3.32;61.60
41596;BME280;27283;52.504;13.358;2024-03-08T05:02:14;101875.56;;;3.52;60.88
41596;BME280;27283;52.504;13.358;2024-03-08T05:04:46;101872.16;;;3.64;60.92
41596;BME280;27283;52.504;13.358;2024-03-08T05:07:18;101873.97;;;3.93;59.69
41596;BME280;27283;52.504;13.358;2024-03-08T05:09:52;101867.63;;;3.36;61.45
41596;BME280;27283;52.504;13.358;2024-03-08T05:12:25;101878.56;;;3.15;62.09
41596;BME280;27283;52.504;13.358;2024-03-08T05:14:57;101870.94;;;3.40;61.55
41596;BME280;27283;52.504;13.358;2024-03-08T05:17:29;101868.44;;;3.81;60.28
41596;BME280;27283;52.504;13.358;2024-03-08T05:20:01;101860.00;;;3.89;59.37
41596;BME280;27283;52.504;13.358;2024-03-08T05:22:37;101871.19;;;3.65;60.76
41596;BME280;27283;52.504;13.358;2024-03-08T05:25:11;101866.53;;;3.24;61.99
41596;BME280;27283;52.504;13.358;2024-03-08T05:27:43;101866.16;;;3.75;61.07
41596;BME280;27283;52.504;13.358;2024-03-08T05:30:16;101866.16;;;4.04;59.85
41596;BME280;27283;52.504;13.358;2024-03-08T05:32:50;101860.94;;;3.73;60.53
41596;BME280;27283;52.504;13.358;2024-03-08T05:35:22;101864.00;;;3.96;59.85
41596;BME280;27283;52.504;13.358;2024-03-08T05:37:54;101863.94;;;3.53;61.36
41596;BME280;27283;52.504;13.358;2024-03-08T05:40:29;101862.09;;;3.25;62.42
41596;BME280;27283;52.504;13.358;2024-03-08T05:43:02;101863.94;;;3.39;62.10
41596;BME280;27283;52.504;13.358;2024-03-08T05:45:34;101863.50;;;3.16;62.93
41596;BME280;27283;52.504;13.358;2024-03-08T05:48:07;101852.50;;;3.22;63.07
41596;BME280;27283;52.504;13.358;2024-03-08T05:50:43;101858.44;;;3.56;61.94
41596;BME280;27283;52.504;13.358;2024-03-08T05:53:15;101862.00;;;3.26;62.33
41596;BME280;27283;52.504;13.358;2024-03-08T05:55:50;101850.94;;;3.04;64.01
41596;BME280;27283;52.504;13.358;2024-03-08T05:58:23;101860.94;;;3.29;63.05
41596;BME280;27283;52.504;13.358;2024-03-08T06:00:55;101861.69;;;3.61;62.15
41596;BME280;27283;52.504;13.358;2024-03-08T06:03:26;101856.63;;;3.42;62.22
41596;BME280;27283;52.504;13.358;2024-03-08T06:05:58;101865.75;;;3.52;62.34
41596;BME280;27283;52.504;13.358;2024-03-08T06:08:31;101864.53;;;3.72;60.98
41596;BME280;27283;52.504;13.358;2024-03-08T06:11:05;101860.28;;;3.84;61.13
41596;BME280;27283;52.504;13.358;2024-03-08T06:13:37;101866.66;;;3.96;60.97
41596;BME280;27283;52.504;13.358;2024-03-08T06:16:09;101877.75;;;3.60;61.12
41596;BME280;27283;52.504;13.358;2024-03-08T06:18:41;101863.38;;;3.48;62.26
41596;BME280;27283;52.504;13.358;2024-03-08T06:21:12;101871.66;;;3.58;61.34
41596;BME280;27283;52.504;13.358;2024-03-08T06:23:45;101868.44;;;3.81;60.99
41596;BME280;27283;52.504;13.358;2024-03-08T06:26:19;101874.75;;;3.35;61.83
41596;BME280;27283;52.504;13.358;2024-03-08T06:28:54;101867.06;;;3.45;61.98
41596;BME280;27283;52.504;13.358;2024-03-08T06:31:26;101874.34;;;4.15;60.58
41596;BME280;27283;52.504;13.358;2024-03-08T06:33:58;101863.84;;;3.40;61.53
41596;BME280;27283;52.504;13.358;2024-03-08T06:36:30;101877.47;;;3.64;61.65
41596;BME280;27283;52.504;13.358;2024-03-08T06:39:02;101876.50;;;3.65;62.02
41596;BME280;27283;52.504;13.358;2024-03-08T06:41:41;101870.72;;;4.16;60.10
41596;BME280;27283;52.504;13.358;2024-03-08T06:44:13;101867.28;;;4.00;60.24
41596;BME280;27283;52.504;13.358;2024-03-08T06:46:45;101872.13;;;4.36;59.29
41596;BME280;27283;52.504;13.358;2024-03-08T06:49:17;101863.41;;;4.05;59.65
41596;BME280;27283;52.504;13.358;2024-03-08T06:51:48;101872.44;;;3.74;60.28
41596;BME280;27283;52.504;13.358;2024-03-08T06:54:20;101867.69;;;3.79;61.31
41596;BME280;27283;52.504;13.358;2024-03-08T06:56:56;101865.22;;;3.90;60.43
41596;BME280;27283;52.504;13.358;2024-03-08T06:59:29;101863.31;;;4.07;59.82
41596;BME280;27283;52.504;13.358;2024-03-08T07:02:01;101868.44;;;4.24;59.04
41596;BME280;27283;52.504;13.358;2024-03-08T07:04:33;101867.28;;;4.29;58.79
41596;BME280;27283;52.504;13.358;2024-03-08T07:07:06;101870.00;;;4.41;58.28
41596;BME280;27283;52.504;13.358;2024-03-08T07:09:39;101864.41;;;4.73;57.53
41596;BME280;27283;52.504;13.358;2024-03-08T07:12:13;101872.81;;;4.67;57.75
41596;BME280;27283;52.504;13.358;2024-03-08T07:14:46;101867.28;;;4.70;56.54
41596;BME280;27283;52.504;13.358;2024-03-08T07:17:17;101854.78;;;4.98;56.21
41596;BME280;27283;52.504;13.358;2024-03-08T07:19:50;101865.53;;;4.84;55.98
41596;BME280;27283;52.504;13.358;2024-03-08T07:22:22;101864.06;;;4.65;56.88
41596;BME280;27283;52.504;13.358;2024-03-08T07:24:54;101855.25;;;4.50;57.26
41596;BME280;27283;52.504;13.358;2024-03-08T07:27:49;101853.56;;;5.29;54.38
41596;BME280;27283;52.504;13.358;2024-03-08T07:30:24;101862.00;;;4.83;55.09
41596;BME280;27283;52.504;13.358;2024-03-08T07:33:08;101860.22;;;4.96;54.53
41596;BME280;27283;52.504;13.358;2024-03-08T07:35:42;101854.00;;;5.23;53.62
41596;BME280;27283;52.504;13.358;2024-03-08T07:38:15;101862.09;;;5.09;54.16
41596;BME280;27283;52.504;13.358;2024-03-08T07:40:50;101858.75;;;5.05;54.15
41596;BME280;27283;52.504;13.358;2024-03-08T07:43:25;101848.88;;;5.20;53.81
41596;BME280;27283;52.504;13.358;2024-03-08T07:45:56;101848.13;;;5.31;53.55
41596;BME280;27283;52.504;13.358;2024-03-08T07:48:29;101853.50;;;5.95;51.94
41596;BME280;27283;52.504;13.358;2024-03-08T07:51:01;101855.53;;;5.53;53.09
41596;BME280;27283;52.504;13.358;2024-03-08T07:53:33;101839.38;;;5.93;51.69
41596;BME280;27283;52.504;13.358;2024-03-08T07:56:05;101834.69;;;5.84;51.46
41596;BME280;27283;52.504;13.358;2024-03-08T07:58:42;101841.09;;;5.94;51.18
41596;BME280;27283;52.504;13.358;2024-03-08T08:01:17;101842.13;;;6.30;49.61
41596;BME280;27283;52.504;13.358;2024-03-08T08:03:50;101833.28;;;6.54;49.19
41596;BME280;27283;52.504;13.358;2024-03-08T08:07:10;101826.25;;;7.59;46.97
41596;BME280;27283;52.504;13.358;2024-03-08T08:09:43;101830.72;;;7.59;45.95
41596;BME280;27283;52.504;13.358;2024-03-08T08:12:16;101828.06;;;7.81;45.66
41596;BME280;27283;52.504;13.358;2024-03-08T08:14:50;101829.53;;;8.08;44.88
41596;BME280;27283;52.504;13.358;2024-03-08T08:17:22;101822.72;;;8.71;44.04
41596;BME280;27283;52.504;13.358;2024-03-08T08:19:54;101815.41;;;8.73;43.68
41596;BME280;27283;52.504;13.358;2024-03-08T08:22:26;101822.84;;;9.22;42.67
41596;BME280;27283;52.504;13.358;2024-03-08T08:24:59;101830.50;;;9.79;41.07
41596;BME280;27283;52.504;13.358;2024-03-08T08:27:31;101826.44;;;9.33;41.33
41596;BME280;27283;52.504;13.358;2024-03-08T08:30:06;101816.63;;;10.05;39.77
41596;BME280;27283;52.504;13.358;2024-03-08T08:32:40;101817.16;;;10.39;39.38
41596;BME280;27283;52.504;13.358;2024-03-08T08:35:13;101815.09;;;10.12;39.30
41596;BME280;27283;52.504;13.358;2024-03-08T08:37:45;101811.81;;;11.08;38.01
41596;BME280;27283;52.504;13.358;2024-03-08T08:40:17;101810.16;;;12.01;36.10
41596;BME280;27283;52.504;13.358;2024-03-08T08:42:54;101805.84;;;11.81;35.70
41596;BME280;27283;52.504;13.358;2024-03-08T08:45:29;101801.63;;;11.68;36.16
41596;BME280;27283;52.504;13.358;2024-03-08T08:48:01;101796.06;;;11.23;36.67
41596;BME280;27283;52.504;13.358;2024-03-08T08:50:34;101802.28;;;11.80;36.24
41596;BME280;27283;52.504;13.358;2024-03-08T08:53:06;101792.97;;;12.30;35.00
41596;BME280;27283;52.504;13.358;2024-03-08T08:55:40;101783.50;;;12.26;34.66
41596;BME280;27283;52.504;13.358;2024-03-08T08:58:12;101781.59;;;12.09;36.03
41596;BME280;27283;52.504;13.358;2024-03-08T09:01:10;101784.88;;;12.30;35.61
41596;BME280;27283;52.504;13.358;2024-03-08T09:03:42;101788.56;;;13.01;34.11
41596;BME280;27283;52.504;13.358;2024-03-08T09:06:16;101787.63;;;13.55;32.54
41596;BME280;27283;52.504;13.358;2024-03-08T09:08:49;101781.41;;;12.92;34.02
41596;BME280;27283;52.504;13.358;2024-03-08T09:11:21;101783.78;;;13.57;32.99
41596;BME280;27283;52.504;13.358;2024-03-08T09:13:56;101780.69;;;13.87;33.20
41596;BME280;27283;52.504;13.358;2024-03-08T09:16:31;101777.94;;;13.44;32.51
41596;BME280;27283;52.504;13.358;2024-03-08T09:19:03;101774.34;;;12.37;33.94
41596;BME280;27283;52.504;13.358;2024-03-08T09:21:36;101778.16;;;11.51;35.30
41596;BME280;27283;52.504;13.358;2024-03-08T09:24:10;101771.94;;;12.16;35.34
41596;BME280;27283;52.504;13.358;2024-03-08T09:26:42;101769.00;;;11.72;35.30
41596;BME280;27283;52.504;13.358;2024-03-08T09:29:14;101768.06;;;13.53;33.74
41596;BME280;27283;52.504;13.358;2024-03-08T09:31:49;101765.81;;;14.33;32.15
41596;BME280;27283;52.504;13.358;2024-03-08T09:34:21;101756.16;;;14.23;31.70
41596;BME280;27283;52.504;13.358;2024-03-08T09:37:04;101766.94;;;12.93;32.77
41596;BME280;27283;52.504;13.358;2024-03-08T09:39:38;101759.06;;;12.82;32.72
41596;BME280;27283;52.504;13.358;2024-03-08T09:42:15;101753.56;;;12.65;32.56
41596;BME280;27283;52.504;13.358;2024-03-08T09:44:48;101748.97;;;13.54;31.97
41596;BME280;27283;52.504;13.358;2024-03-08T09:47:28;101748.03;;;13.19;32.22
41596;BME280;27283;52.504;13.358;2024-03-08T09:50:02;101748.06;;;14.47;31.53
41596;BME280;27283;52.504;13.358;2024-03-08T09:52:35;101745.81;;;15.58;29.45
41596;BME280;27283;52.504;13.358;2024-03-08T09:55:09;101745.25;;;14.74;29.99
41596;BME280;27283;52.504;13.358;2024-03-08T09:57:42;101730.44;;;13.68;31.92
41596;BME280;27283;52.504;13.358;2024-03-08T10:00:37;101729.50;;;13.85;31.20
41596;BME280;27283;52.504;13.358;2024-03-08T10:03:12;101729.78;;;14.41;29.96
41596;BME280;27283;52.504;13.358;2024-03-08T10:05:44;101723.25;;;13.24;31.55
41596;BME280;27283;52.504;13.358;2024-03-08T10:08:16;101725.09;;;14.43;30.28
41596;BME280;27283;52.504;13.358;2024-03-08T10:10:50;101722.03;;;13.79;31.40
41596;BME280;27283;52.504;13.358;2024-03-08T10:13:22;101717.13;;;14.50;30.34
41596;BME280;27283;52.504;13.358;2024-03-08T10:15:55;101711.38;;;14.94;29.80
41596;BME280;27283;52.504;13.358;2024-03-08T10:18:30;101713.19;;;15.74;28.91
41596;BME280;27283;52.504;13.358;2024-03-08T10:21:05;101705.94;;;15.67;28.36
41596;BME280;27283;52.504;13.358;2024-03-08T10:23:39;101708.69;;;14.61;30.14
41596;BME280;27283;52.504;13.358;2024-03-08T10:26:12;101700.63;;;15.82;28.39
41596;BME280;27283;52.504;13.358;2024-03-08T10:29:24;101698.44;;;15.37;28.74
41596;BME280;27283;52.504;13.358;2024-03-08T10:32:24;101694.19;;;15.35;28.58
41596;BME280;27283;52.504;13.358;2024-03-08T10:50:07;101676.34;;;15.57;28.80
41596;BME280;27283;52.504;13.358;2024-03-08T10:52:58;101669.69;;;15.20;28.84
41596;BME280;27283;52.504;13.358;2024-03-08T10:55:46;101662.94;;;15.16;28.95
41596;BME280;27283;52.504;13.358;2024-03-08T10:58:22;101664.56;;;15.33;28.30
41596;BME280;27283;52.504;13.358;2024-03-08T11:00:56;101668.84;;;15.67;27.38
41596;BME280;27283;52.504;13.358;2024-03-08T11:03:43;101659.88;;;15.19;27.59
41596;BME280;27283;52.504;13.358;2024-03-08T11:06:23;101654.06;;;14.74;29.00
41596;BME280;27283;52.504;13.358;2024-03-08T11:09:00;101654.66;;;15.49;27.79
41596;BME280;27283;52.504;13.358;2024-03-08T11:11:33;101658.75;;;14.97;27.79
41596;BME280;27283;52.504;13.358;2024-03-08T11:14:06;101639.16;;;14.45;28.70
41596;BME280;27283;52.504;13.358;2024-03-08T11:16:58;101640.94;;;15.11;27.42
41596;BME280;27283;52.504;13.358;2024-03-08T11:19:33;101637.38;;;15.89;26.89
41596;BME280;27283;52.504;13.358;2024-03-08T11:22:20;101642.56;;;15.68;27.14
41596;BME280;27283;52.504;13.358;2024-03-08T11:24:53;101632.91;;;14.69;27.77
41596;BME280;27283;52.504;13.358;2024-03-08T11:27:29;101622.69;;;15.75;27.70
41596;BME280;27283;52.504;13.358;2024-03-08T11:30:02;101627.63;;;16.79;25.95
41596;BME280;27283;52.504;13.358;2024-03-08T11:32:46;101617.56;;;16.88;25.50
41596;BME280;27283;52.504;13.358;2024-03-08T11:35:21;101615.19;;;15.54;26.87
41596;BME280;27283;52.504;13.358;2024-03-08T11:37:58;101619.72;;;15.93;25.82
41596;BME280;27283;52.504;13.358;2024-03-08T11:40:30;101614.38;;;15.85;26.49
41596;BME280;27283;52.504;13.358;2024-03-08T11:43:02;101604.66;;;15.28;26.47
41596;BME280;27283;52.504;13.358;2024-03-08T11:45:35;101607.00;;;16.17;25.58
41596;BME280;27283;52.504;13.358;2024-03-08T11:48:13;101604.66;;;15.28;27.07
41596;BME280;27283;52.504;13.358;2024-03-08T11:50:59;101592.56;;;16.17;26.48
41596;BME280;27283;52.504;13.358;2024-03-08T11:53:36;101589.47;;;15.82;25.95
41596;BME280;27283;52.504;13.358;2024-03-08T11:56:14;101591.22;;;14.87;26.71
41596;BME280;27283;52.504;13.358;2024-03-08T11:58:55;101593.56;;;15.38;26.95
41596;BME280;27283;52.504;13.358;2024-03-08T12:01:32;101584.94;;;15.03;26.70
41596;BME280;27283;52.504;13.358;2024-03-08T12:04:06;101584.41;;;15.79;25.77
41596;BME280;27283;52.504;13.358;2024-03-08T12:06:41;101582.75;;;16.54;25.57
41596;BME280;27283;52.504;13.358;2024-03-08T12:09:20;101576.56;;;16.07;26.39
41596;BME280;27283;52.504;13.358;2024-03-08T12:11:52;101573.50;;;14.84;27.02
41596;BME280;27283;52.504;13.358;2024-03-08T12:14:48;101581.13;;;13.65;28.59
41596;BME280;27283;52.504;13.358;2024-03-08T12:17:25;101570.84;;;13.77;28.30
41596;BME280;27283;52.504;13.358;2024-03-08T12:20:11;101564.44;;;12.58;30.84
41596;BME280;27283;52.504;13.358;2024-03-08T12:22:44;101571.97;;;11.39;31.86
41596;BME280;27283;52.504;13.358;2024-03-08T12:25:21;101571.97;;;10.83;33.40
41596;BME280;27283;52.504;13.358;2024-03-08T12:27:54;101556.22;;;10.88;34.41
41596;BME280;27283;52.504;13.358;2024-03-08T12:30:31;101558.78;;;10.42;35.45
41596;BME280;27283;52.504;13.358;2024-03-08T12:33:04;101551.34;;;10.74;34.94
41596;BME280;27283;52.504;13.358;2024-03-08T12:35:39;101545.06;;;10.83;34.58
41596;BME280;27283;52.504;13.358;2024-03-08T12:38:11;101547.97;;;10.52;34.84
41596;BME280;27283;52.504;13.358;2024-03-08T12:40:47;101544.78;;;10.19;35.43
41596;BME280;27283;52.504;13.358;2024-03-08T12:43:18;101538.56;;;10.19;35.65
41596;BME280;27283;52.504;13.358;2024-03-08T12:45:50;101533.63;;;10.04;36.25
41596;BME280;27283;52.504;13.358;2024-03-08T12:48:23;101530.78;;;10.25;35.38
41596;BME280;27283;52.504;13.358;2024-03-08T12:50:55;101529.22;;;10.42;34.97
41596;BME280;27283;52.504;13.358;2024-03-08T12:53:27;101523.31;;;10.67;34.98
41596;BME280;27283;52.504;13.358;2024-03-08T12:56:02;101521.16;;;10.33;35.19
41596;BME280;27283;52.504;13.358;2024-03-08T12:58:39;101511.81;;;10.27;35.39
41596;BME280;27283;52.504;13.358;2024-03-08T13:01:12;101509.41;;;10.34;35.87
41596;BME280;27283;52.504;13.358;2024-03-08T13:03:46;101501.91;;;10.27;35.21
41596;BME280;27283;52.504;13.358;2024-03-08T13:06:18;101501.53;;;9.93;35.50
41596;BME280;27283;52.504;13.358;2024-03-08T13:08:53;101502.53;;;9.43;36.54
41596;BME280;27283;52.504;13.358;2024-03-08T13:11:27;101495.38;;;10.40;35.51
41596;BME280;27283;52.504;13.358;2024-03-08T13:13:59;101495.03;;;11.18;34.42
41596;BME280;27283;52.504;13.358;2024-03-08T13:16:32;101491.75;;;10.96;34.26
41596;BME280;27283;52.504;13.358;2024-03-08T13:19:04;101487.16;;;10.51;35.04
41596;BME280;27283;52.504;13.358;2024-03-08T13:21:39;101490.16;;;10.38;35.54
41596;BME280;27283;52.504;13.358;2024-03-08T13:24:14;101478.81;;;9.87;35.92
41596;BME280;27283;52.504;13.358;2024-03-08T13:26:50;101482.78;;;10.31;35.59
41596;BME280;27283;52.504;13.358;2024-03-08T13:29:22;101488.06;;;10.22;35.45
41596;BME280;27283;52.504;13.358;2024-03-08T13:31:56;101470.97;;;10.14;36.09
41596;BME280;27283;52.504;13.358;2024-03-08T13:34:30;101475.91;;;10.66;35.51
41596;BME280;27283;52.504;13.358;2024-03-08T13:37:05;101475.75;;;10.67;35.92
41596;BME280;27283;52.504;13.358;2024-03-08T13:39:43;101467.38;;;10.42;35.54
41596;BME280;27283;52.504;13.358;2024-03-08T13:42:20;101453.63;;;10.45;35.49
41596;BME280;27283;52.504;13.358;2024-03-08T13:44:55;101453.34;;;10.49;35.05
41596;BME280;27283;52.504;13.358;2024-03-08T13:47:31;101455.09;;;10.20;35.62
41596;BME280;27283;52.504;13.358;2024-03-08T13:50:05;101459.06;;;10.63;35.42
41596;BME280;27283;52.504;13.358;2024-03-08T13:52:40;101447.72;;;10.42;35.12